EXS84GV ENBR-EGCC
Flight info
| Callsign | EXS84GV |
|---|---|
| Flight time | 1h 48m |
| Altitude | 34000 |
| Route | EPOTU DCT KLONN DCT TILNI |
| Aircraft | A321/M-SDE3FGHIRWY/LB1 |
Departure
| Time | 2026-05-05 18:52 |
|---|---|
| Airport | Bergen Airport, Flesland (ENBR) |
Arrival
| Time | 2026-05-05 20:40 |
|---|---|
| Airport | Manchester Airport (EGCC) |
| Time | Latitude | Longitude | Altitude | Speed | Heading |
|---|---|---|---|---|---|
| 2026-05-05 18:24 | 60.28828 | 5.22611 | 175 ft | 0 kts | 34° |
| 2026-05-05 18:26 | 60.28863 | 5.22566 | 175 ft | 0 kts | 61° |
| 2026-05-05 18:44 | 60.28857 | 5.22545 | 175 ft | 4 kts | 62° |
| 2026-05-05 18:45 | 60.28846 | 5.22496 | 175 ft | 4 kts | 78° |
| 2026-05-05 18:45 | 60.28846 | 5.22446 | 175 ft | 4 kts | 120° |
| 2026-05-05 18:45 | 60.28859 | 5.22422 | 175 ft | 1 kts | 171° |
| 2026-05-05 18:48 | 60.28845 | 5.22426 | 175 ft | 6 kts | 171° |
| 2026-05-05 18:49 | 60.28789 | 5.22334 | 171 ft | 15 kts | 209° |
| 2026-05-05 18:49 | 60.28682 | 5.22359 | 168 ft | 16 kts | 170° |
| 2026-05-05 18:49 | 60.28574 | 5.22395 | 166 ft | 16 kts | 171° |
| 2026-05-05 18:49 | 60.28463 | 5.22431 | 163 ft | 17 kts | 171° |
| 2026-05-05 18:50 | 60.28346 | 5.22468 | 159 ft | 17 kts | 170° |
| 2026-05-05 18:50 | 60.28224 | 5.22510 | 156 ft | 18 kts | 170° |
| 2026-05-05 18:50 | 60.28095 | 5.22536 | 152 ft | 19 kts | 194° |
| 2026-05-05 18:50 | 60.28048 | 5.22332 | 153 ft | 15 kts | 265° |
| 2026-05-05 18:51 | 60.28107 | 5.22230 | 153 ft | 0 kts | 350° |
| 2026-05-05 18:51 | 60.28115 | 5.22227 | 153 ft | 7 kts | 350° |
| 2026-05-05 18:52 | 60.28372 | 5.22138 | 156 ft | 73 kts | 351° |
| 2026-05-05 18:52 | 60.29085 | 5.21901 | 162 ft | 132 kts | 350° |
| 2026-05-05 18:52 | 60.30155 | 5.21537 | 210 ft | 173 kts | 347° |
| 2026-05-05 18:52 | 60.31316 | 5.21153 | 955 ft | 167 kts | 348° |
| 2026-05-05 18:53 | 60.32467 | 5.20767 | 1658 ft | 170 kts | 349° |
| 2026-05-05 18:53 | 60.33696 | 5.20349 | 1906 ft | 190 kts | 349° |
| 2026-05-05 18:53 | 60.35070 | 5.19881 | 2069 ft | 212 kts | 349° |
| 2026-05-05 18:53 | 60.36611 | 5.19359 | 2267 ft | 237 kts | 349° |
| 2026-05-05 18:54 | 60.38284 | 5.18792 | 2926 ft | 246 kts | 349° |
| 2026-05-05 18:54 | 60.39986 | 5.18221 | 3766 ft | 250 kts | 349° |
| 2026-05-05 18:54 | 60.41714 | 5.17642 | 4598 ft | 253 kts | 349° |
| 2026-05-05 18:54 | 60.43460 | 5.17055 | 5445 ft | 256 kts | 349° |
| 2026-05-05 18:55 | 60.45224 | 5.16457 | 6290 ft | 258 kts | 349° |
| 2026-05-05 18:55 | 60.46927 | 5.15343 | 7055 ft | 259 kts | 327° |
| 2026-05-05 18:55 | 60.48195 | 5.12794 | 7784 ft | 261 kts | 300° |
| 2026-05-05 18:55 | 60.48722 | 5.09290 | 8532 ft | 265 kts | 272° |
| 2026-05-05 18:56 | 60.48515 | 5.05553 | 9310 ft | 268 kts | 262° |
| 2026-05-05 18:56 | 60.47987 | 5.01915 | 10050 ft | 274 kts | 243° |
| 2026-05-05 18:56 | 60.46709 | 4.99011 | 10723 ft | 283 kts | 217° |
| 2026-05-05 18:56 | 60.44836 | 4.97514 | 10998 ft | 311 kts | 188° |
| 2026-05-05 18:57 | 60.42557 | 4.97640 | 11149 ft | 336 kts | 178° |
| 2026-05-05 18:57 | 60.40184 | 4.98125 | 11532 ft | 349 kts | 176° |
| 2026-05-05 18:57 | 60.37753 | 4.98711 | 12159 ft | 354 kts | 176° |
| 2026-05-05 18:57 | 60.35290 | 4.99315 | 12814 ft | 359 kts | 176° |
| 2026-05-05 18:58 | 60.32833 | 4.99892 | 13466 ft | 363 kts | 176° |
| 2026-05-05 18:58 | 60.30306 | 5.00450 | 14078 ft | 367 kts | 177° |
| 2026-05-05 18:58 | 60.27754 | 5.01009 | 14694 ft | 371 kts | 175° |
| 2026-05-05 18:58 | 60.25166 | 5.01983 | 15315 ft | 375 kts | 173° |
| 2026-05-05 18:59 | 60.22589 | 5.02922 | 15937 ft | 376 kts | 179° |
| 2026-05-05 18:59 | 60.19999 | 5.02848 | 16534 ft | 370 kts | 194° |
| 2026-05-05 18:59 | 60.17541 | 5.01521 | 17147 ft | 364 kts | 208° |
| 2026-05-05 18:59 | 60.15355 | 4.99082 | 17787 ft | 357 kts | 222° |
| 2026-05-05 19:00 | 60.13565 | 4.95806 | 18382 ft | 350 kts | 234° |
| 2026-05-05 19:00 | 60.12194 | 4.91832 | 18943 ft | 345 kts | 245° |
| 2026-05-05 19:00 | 60.11006 | 4.87656 | 19526 ft | 345 kts | 245° |
| 2026-05-05 19:00 | 60.09814 | 4.83492 | 20109 ft | 344 kts | 245° |
| 2026-05-05 19:01 | 60.08620 | 4.79333 | 20679 ft | 344 kts | 245° |
| 2026-05-05 19:01 | 60.07427 | 4.75194 | 21230 ft | 343 kts | 245° |
| 2026-05-05 19:01 | 60.06235 | 4.71058 | 21786 ft | 343 kts | 246° |
| 2026-05-05 19:01 | 60.05042 | 4.66921 | 22299 ft | 344 kts | 246° |
| 2026-05-05 19:02 | 60.03842 | 4.62774 | 22800 ft | 345 kts | 246° |
| 2026-05-05 19:02 | 60.02639 | 4.58618 | 23276 ft | 346 kts | 246° |
| 2026-05-05 19:02 | 60.01415 | 4.54389 | 23728 ft | 347 kts | 246° |
| 2026-05-05 19:02 | 60.00218 | 4.50262 | 24099 ft | 349 kts | 245° |
| 2026-05-05 19:03 | 59.98995 | 4.46058 | 24461 ft | 351 kts | 245° |
| 2026-05-05 19:03 | 59.97762 | 4.41833 | 24820 ft | 353 kts | 245° |
| 2026-05-05 19:03 | 59.96522 | 4.37597 | 25172 ft | 355 kts | 245° |
| 2026-05-05 19:03 | 59.95273 | 4.33333 | 25519 ft | 357 kts | 245° |
| 2026-05-05 19:04 | 59.94019 | 4.29053 | 25862 ft | 359 kts | 245° |
| 2026-05-05 19:04 | 59.92753 | 4.24743 | 26201 ft | 361 kts | 245° |
| 2026-05-05 19:04 | 59.91479 | 4.20424 | 26546 ft | 363 kts | 245° |
| 2026-05-05 19:04 | 59.90196 | 4.16087 | 26875 ft | 364 kts | 245° |
| 2026-05-05 19:05 | 59.88817 | 4.11814 | 27188 ft | 371 kts | 238° |
| 2026-05-05 19:05 | 59.87024 | 4.08038 | 27510 ft | 382 kts | 227° |
| 2026-05-05 19:05 | 59.84803 | 4.04991 | 27819 ft | 396 kts | 217° |
| 2026-05-05 19:05 | 59.82271 | 4.02682 | 28053 ft | 403 kts | 212° |
| 2026-05-05 19:06 | 59.79699 | 4.00447 | 28377 ft | 404 kts | 212° |
| 2026-05-05 19:06 | 59.77122 | 3.98203 | 28686 ft | 405 kts | 212° |
| 2026-05-05 19:06 | 59.74532 | 3.95948 | 28987 ft | 407 kts | 212° |
| 2026-05-05 19:06 | 59.71935 | 3.93688 | 29279 ft | 409 kts | 212° |
| 2026-05-05 19:07 | 59.69323 | 3.91420 | 29565 ft | 411 kts | 212° |
| 2026-05-05 19:07 | 59.67591 | 3.89915 | 29735 ft | 412 kts | 212° |
| 2026-05-05 19:07 | 59.64067 | 3.86862 | 30097 ft | 415 kts | 212° |
| 2026-05-05 19:07 | 59.61418 | 3.84576 | 30344 ft | 416 kts | 212° |
| 2026-05-05 19:08 | 59.58766 | 3.82297 | 30669 ft | 415 kts | 212° |
| 2026-05-05 19:08 | 59.56121 | 3.80025 | 30987 ft | 415 kts | 212° |
| 2026-05-05 19:08 | 59.53475 | 3.77749 | 31250 ft | 414 kts | 211° |
| 2026-05-05 19:08 | 59.50842 | 3.75490 | 31603 ft | 413 kts | 211° |
| 2026-05-05 19:09 | 59.48206 | 3.73231 | 31930 ft | 412 kts | 211° |
| 2026-05-05 19:09 | 59.45578 | 3.70978 | 32245 ft | 412 kts | 211° |
| 2026-05-05 19:09 | 59.42948 | 3.68731 | 32550 ft | 412 kts | 211° |
| 2026-05-05 19:09 | 59.40322 | 3.66490 | 32859 ft | 412 kts | 211° |
| 2026-05-05 19:10 | 59.37694 | 3.64253 | 33171 ft | 411 kts | 211° |
| 2026-05-05 19:10 | 59.35067 | 3.62024 | 33471 ft | 411 kts | 211° |
| 2026-05-05 19:10 | 59.32441 | 3.59800 | 33779 ft | 411 kts | 211° |
| 2026-05-05 19:10 | 59.29815 | 3.57577 | 33991 ft | 412 kts | 211° |
| 2026-05-05 19:11 | 59.24648 | 3.53213 | 34032 ft | 404 kts | 211° |
| 2026-05-05 19:11 | 59.19505 | 3.48881 | 34044 ft | 402 kts | 211° |
| 2026-05-05 19:12 | 59.14340 | 3.44526 | 34040 ft | 402 kts | 211° |
| 2026-05-05 19:12 | 59.09240 | 3.40257 | 34040 ft | 402 kts | 211° |
| 2026-05-05 19:13 | 59.04102 | 3.35987 | 34040 ft | 402 kts | 211° |
| 2026-05-05 19:13 | 58.98968 | 3.31707 | 34026 ft | 401 kts | 211° |
| 2026-05-05 19:14 | 58.93828 | 3.27446 | 34018 ft | 402 kts | 210° |
| 2026-05-05 19:14 | 58.88675 | 3.23196 | 34036 ft | 402 kts | 210° |
| 2026-05-05 19:15 | 58.83523 | 3.18957 | 34032 ft | 402 kts | 210° |
| 2026-05-05 19:15 | 58.78369 | 3.14729 | 34049 ft | 403 kts | 210° |
| 2026-05-05 19:16 | 58.74050 | 3.11198 | 34045 ft | 403 kts | 210° |
| 2026-05-05 19:16 | 58.68890 | 3.06992 | 34045 ft | 403 kts | 210° |
| 2026-05-05 19:17 | 58.63756 | 3.02824 | 34048 ft | 403 kts | 210° |
| 2026-05-05 19:17 | 58.58594 | 2.98636 | 34054 ft | 403 kts | 210° |
| 2026-05-05 19:18 | 58.53422 | 2.94462 | 34057 ft | 403 kts | 210° |
| 2026-05-05 19:18 | 58.48246 | 2.90304 | 34056 ft | 404 kts | 210° |
| 2026-05-05 19:19 | 58.43068 | 2.86148 | 34022 ft | 404 kts | 209° |
| 2026-05-05 19:19 | 58.38038 | 2.81519 | 34034 ft | 397 kts | 220° |
| 2026-05-05 19:20 | 58.33602 | 2.75393 | 34041 ft | 394 kts | 221° |
| 2026-05-05 19:20 | 58.29155 | 2.69286 | 34048 ft | 395 kts | 221° |
| 2026-05-05 19:21 | 58.24694 | 2.63195 | 34050 ft | 395 kts | 221° |
| 2026-05-05 19:21 | 58.20238 | 2.57110 | 34052 ft | 395 kts | 221° |
| 2026-05-05 19:22 | 58.15778 | 2.51044 | 34037 ft | 395 kts | 221° |
| 2026-05-05 19:22 | 58.11300 | 2.44973 | 34046 ft | 396 kts | 221° |
| 2026-05-05 19:23 | 58.06828 | 2.38914 | 34050 ft | 396 kts | 221° |
| 2026-05-05 19:23 | 58.02359 | 2.32870 | 34050 ft | 396 kts | 221° |
| 2026-05-05 19:24 | 57.97878 | 2.26838 | 34053 ft | 396 kts | 220° |
| 2026-05-05 19:24 | 57.93390 | 2.20833 | 34054 ft | 396 kts | 220° |
| 2026-05-05 19:25 | 57.88896 | 2.14832 | 34044 ft | 397 kts | 220° |
| 2026-05-05 19:25 | 57.84380 | 2.08811 | 34054 ft | 398 kts | 220° |
| 2026-05-05 19:26 | 57.79860 | 2.02801 | 34068 ft | 398 kts | 220° |
| 2026-05-05 19:26 | 57.75329 | 1.96802 | 34068 ft | 399 kts | 220° |
| 2026-05-05 19:27 | 57.70794 | 1.90814 | 34079 ft | 399 kts | 220° |
| 2026-05-05 19:27 | 57.66257 | 1.84848 | 34075 ft | 399 kts | 220° |
| 2026-05-05 19:28 | 57.61721 | 1.78894 | 34028 ft | 399 kts | 219° |
| 2026-05-05 19:28 | 57.57171 | 1.72937 | 34047 ft | 400 kts | 219° |
| 2026-05-05 19:29 | 57.52634 | 1.67029 | 34052 ft | 401 kts | 219° |
| 2026-05-05 19:29 | 57.48048 | 1.61086 | 34058 ft | 402 kts | 219° |
| 2026-05-05 19:30 | 57.43465 | 1.55142 | 34065 ft | 402 kts | 219° |
| 2026-05-05 19:30 | 57.38880 | 1.49209 | 34068 ft | 402 kts | 219° |
| 2026-05-05 19:31 | 57.34279 | 1.43298 | 34037 ft | 402 kts | 219° |
| 2026-05-05 19:31 | 57.29676 | 1.37392 | 34053 ft | 403 kts | 219° |
| 2026-05-05 19:32 | 57.25068 | 1.31502 | 34055 ft | 403 kts | 218° |
| 2026-05-05 19:32 | 57.20453 | 1.25616 | 34060 ft | 403 kts | 219° |
| 2026-05-05 19:33 | 57.15836 | 1.19738 | 34072 ft | 403 kts | 218° |
| 2026-05-05 19:33 | 57.11215 | 1.13879 | 34068 ft | 404 kts | 218° |
| 2026-05-05 19:34 | 57.06577 | 1.08028 | 34074 ft | 405 kts | 218° |
| 2026-05-05 19:35 | 56.99614 | 0.99251 | 34081 ft | 405 kts | 218° |
| 2026-05-05 19:35 | 56.94963 | 0.93413 | 34086 ft | 405 kts | 218° |
| 2026-05-05 19:36 | 56.90312 | 0.87603 | 34079 ft | 405 kts | 218° |
| 2026-05-05 19:36 | 56.85661 | 0.81805 | 34075 ft | 405 kts | 218° |
| 2026-05-05 19:37 | 56.81002 | 0.76016 | 34055 ft | 405 kts | 218° |
| 2026-05-05 19:37 | 56.76340 | 0.70250 | 34062 ft | 405 kts | 218° |
| 2026-05-05 19:38 | 56.71672 | 0.64482 | 34067 ft | 405 kts | 218° |
| 2026-05-05 19:38 | 56.67001 | 0.58729 | 34071 ft | 406 kts | 218° |
| 2026-05-05 19:39 | 56.62321 | 0.52988 | 34069 ft | 406 kts | 217° |
| 2026-05-05 19:39 | 56.57634 | 0.47248 | 34069 ft | 407 kts | 217° |
| 2026-05-05 19:40 | 56.52937 | 0.41506 | 34052 ft | 407 kts | 217° |
| 2026-05-05 19:40 | 56.48234 | 0.35780 | 34061 ft | 408 kts | 217° |
| 2026-05-05 19:41 | 56.43514 | 0.30075 | 34079 ft | 408 kts | 217° |
| 2026-05-05 19:41 | 56.38789 | 0.24379 | 34073 ft | 408 kts | 217° |
| 2026-05-05 19:42 | 56.34063 | 0.18692 | 34074 ft | 408 kts | 217° |
| 2026-05-05 19:42 | 56.29341 | 0.13016 | 34050 ft | 408 kts | 217° |
| 2026-05-05 19:43 | 56.24650 | 0.07383 | 34061 ft | 408 kts | 216° |
| 2026-05-05 19:43 | 56.19922 | 0.01729 | 34068 ft | 408 kts | 216° |
| 2026-05-05 19:44 | 56.15190 | -0.03911 | 34072 ft | 409 kts | 216° |
| 2026-05-05 19:44 | 56.10446 | -0.09545 | 34071 ft | 409 kts | 216° |
| 2026-05-05 19:45 | 56.05689 | -0.15165 | 34072 ft | 410 kts | 216° |
| 2026-05-05 19:45 | 56.00925 | -0.20779 | 34073 ft | 410 kts | 216° |
| 2026-05-05 19:46 | 55.96157 | -0.26392 | 34072 ft | 410 kts | 216° |
| 2026-05-05 19:46 | 55.91390 | -0.31994 | 34073 ft | 410 kts | 216° |
| 2026-05-05 19:47 | 55.86621 | -0.37593 | 34074 ft | 411 kts | 216° |
| 2026-05-05 19:47 | 55.81844 | -0.43162 | 34074 ft | 411 kts | 216° |
| 2026-05-05 19:48 | 55.77055 | -0.48703 | 34053 ft | 411 kts | 216° |
| 2026-05-05 19:48 | 55.72273 | -0.54235 | 34063 ft | 410 kts | 216° |
| 2026-05-05 19:49 | 55.67491 | -0.59770 | 34064 ft | 410 kts | 216° |
| 2026-05-05 19:49 | 55.62714 | -0.65287 | 34066 ft | 410 kts | 216° |
| 2026-05-05 19:50 | 55.57923 | -0.70780 | 34076 ft | 410 kts | 215° |
| 2026-05-05 19:50 | 55.53135 | -0.76248 | 34076 ft | 410 kts | 215° |
| 2026-05-05 19:51 | 55.48351 | -0.81718 | 34066 ft | 409 kts | 215° |
| 2026-05-05 19:51 | 55.43612 | -0.87136 | 34072 ft | 408 kts | 216° |
| 2026-05-05 19:52 | 55.38841 | -0.92555 | 34077 ft | 408 kts | 215° |
| 2026-05-05 19:52 | 55.34070 | -0.97943 | 34076 ft | 407 kts | 215° |
| 2026-05-05 19:53 | 55.29299 | -1.03317 | 34075 ft | 407 kts | 215° |
| 2026-05-05 19:53 | 55.24532 | -1.08683 | 34050 ft | 407 kts | 215° |
| 2026-05-05 19:54 | 55.19771 | -1.14046 | 34058 ft | 407 kts | 215° |
| 2026-05-05 19:54 | 55.14995 | -1.19389 | 34062 ft | 408 kts | 215° |
| 2026-05-05 19:55 | 55.10210 | -1.24725 | 34072 ft | 408 kts | 215° |
| 2026-05-05 19:55 | 55.05419 | -1.30046 | 34077 ft | 408 kts | 215° |
| 2026-05-05 19:56 | 55.00625 | -1.35365 | 34084 ft | 408 kts | 215° |
| 2026-05-05 19:56 | 54.95829 | -1.40670 | 34001 ft | 409 kts | 215° |
| 2026-05-05 19:56 | 54.93428 | -1.43318 | 33714 ft | 409 kts | 215° |
| 2026-05-05 19:57 | 54.91026 | -1.45967 | 33437 ft | 409 kts | 214° |
| 2026-05-05 19:57 | 54.89432 | -1.47722 | 33247 ft | 408 kts | 214° |
| 2026-05-05 19:57 | 54.86248 | -1.51223 | 32577 ft | 402 kts | 214° |
| 2026-05-05 19:57 | 54.83895 | -1.53809 | 32080 ft | 399 kts | 214° |
| 2026-05-05 19:58 | 54.81560 | -1.56373 | 31592 ft | 395 kts | 214° |
| 2026-05-05 19:58 | 54.79243 | -1.58908 | 31110 ft | 392 kts | 214° |
| 2026-05-05 19:58 | 54.76945 | -1.61415 | 30637 ft | 389 kts | 214° |
| 2026-05-05 19:58 | 54.74667 | -1.63898 | 30164 ft | 386 kts | 214° |
| 2026-05-05 19:59 | 54.72408 | -1.66363 | 29652 ft | 382 kts | 214° |
| 2026-05-05 19:59 | 54.70176 | -1.68796 | 29192 ft | 377 kts | 214° |
| 2026-05-05 19:59 | 54.68713 | -1.70388 | 28890 ft | 374 kts | 214° |
| 2026-05-05 19:59 | 54.66525 | -1.72763 | 28441 ft | 369 kts | 214° |
| 2026-05-05 20:00 | 54.64361 | -1.75108 | 27996 ft | 365 kts | 214° |
| 2026-05-05 20:00 | 54.62227 | -1.77418 | 27569 ft | 360 kts | 214° |
| 2026-05-05 20:00 | 54.59434 | -1.80440 | 27013 ft | 355 kts | 214° |
| 2026-05-05 20:00 | 54.57355 | -1.82691 | 26599 ft | 351 kts | 214° |
| 2026-05-05 20:01 | 54.55220 | -1.84699 | 26195 ft | 350 kts | 206° |
| 2026-05-05 20:01 | 54.53680 | -1.85689 | 25903 ft | 351 kts | 199° |
| 2026-05-05 20:01 | 54.51232 | -1.86637 | 25402 ft | 369 kts | 193° |
| 2026-05-05 20:01 | 54.48687 | -1.87431 | 24891 ft | 373 kts | 193° |
| 2026-05-05 20:02 | 54.46135 | -1.88226 | 24377 ft | 372 kts | 193° |
| 2026-05-05 20:02 | 54.43600 | -1.89018 | 23879 ft | 370 kts | 193° |
| 2026-05-05 20:02 | 54.41067 | -1.89806 | 23319 ft | 369 kts | 193° |
| 2026-05-05 20:02 | 54.38549 | -1.90588 | 22808 ft | 366 kts | 193° |
| 2026-05-05 20:03 | 54.36080 | -1.91355 | 22325 ft | 364 kts | 193° |
| 2026-05-05 20:03 | 54.33565 | -1.92138 | 21822 ft | 362 kts | 193° |
| 2026-05-05 20:03 | 54.31096 | -1.92906 | 21330 ft | 360 kts | 193° |
| 2026-05-05 20:03 | 54.28673 | -1.93660 | 20851 ft | 358 kts | 193° |
| 2026-05-05 20:04 | 54.26242 | -1.94466 | 20365 ft | 355 kts | 198° |
| 2026-05-05 20:04 | 54.23951 | -1.95922 | 19883 ft | 348 kts | 210° |
| 2026-05-05 20:04 | 54.21941 | -1.98156 | 19401 ft | 343 kts | 222° |
| 2026-05-05 20:04 | 54.20277 | -2.01027 | 18944 ft | 339 kts | 234° |
| 2026-05-05 20:05 | 54.18916 | -2.04289 | 18487 ft | 337 kts | 237° |
| 2026-05-05 20:05 | 54.17574 | -2.07560 | 17985 ft | 336 kts | 237° |
| 2026-05-05 20:05 | 54.16241 | -2.10788 | 17499 ft | 333 kts | 237° |
| 2026-05-05 20:05 | 54.14888 | -2.13995 | 17055 ft | 331 kts | 236° |
| 2026-05-05 20:06 | 54.13494 | -2.17113 | 16604 ft | 329 kts | 234° |
| 2026-05-05 20:06 | 54.12083 | -2.20173 | 16155 ft | 327 kts | 234° |
| 2026-05-05 20:06 | 54.10664 | -2.23210 | 15711 ft | 327 kts | 234° |
| 2026-05-05 20:06 | 54.09252 | -2.26229 | 15256 ft | 326 kts | 234° |
| 2026-05-05 20:07 | 54.07848 | -2.29245 | 14803 ft | 325 kts | 234° |
| 2026-05-05 20:07 | 54.06449 | -2.32262 | 14363 ft | 324 kts | 234° |
| 2026-05-05 20:07 | 54.05058 | -2.35274 | 13913 ft | 324 kts | 234° |
| 2026-05-05 20:07 | 54.03675 | -2.38267 | 13622 ft | 317 kts | 234° |
| 2026-05-05 20:08 | 54.02076 | -2.40775 | 13469 ft | 311 kts | 216° |
| 2026-05-05 20:08 | 54.00127 | -2.42300 | 13244 ft | 309 kts | 198° |
| 2026-05-05 20:08 | 53.97996 | -2.42721 | 12842 ft | 312 kts | 179° |
| 2026-05-05 20:08 | 53.95835 | -2.42232 | 12389 ft | 314 kts | 173° |
| 2026-05-05 20:09 | 53.93674 | -2.41668 | 11946 ft | 315 kts | 174° |
| 2026-05-05 20:09 | 53.91543 | -2.41119 | 11607 ft | 311 kts | 174° |
| 2026-05-05 20:09 | 53.89394 | -2.40572 | 11160 ft | 312 kts | 174° |
| 2026-05-05 20:09 | 53.87245 | -2.40031 | 10604 ft | 309 kts | 174° |
| 2026-05-05 20:10 | 53.85123 | -2.39497 | 10191 ft | 308 kts | 174° |
| 2026-05-05 20:10 | 53.83010 | -2.38966 | 9783 ft | 307 kts | 173° |
| 2026-05-05 20:10 | 53.80893 | -2.38433 | 9309 ft | 308 kts | 173° |
| 2026-05-05 20:10 | 53.78807 | -2.37906 | 9037 ft | 298 kts | 173° |
| 2026-05-05 20:11 | 53.76764 | -2.37393 | 8465 ft | 296 kts | 173° |
| 2026-05-05 20:11 | 53.74743 | -2.36888 | 7965 ft | 291 kts | 174° |
| 2026-05-05 20:11 | 53.72754 | -2.36390 | 7500 ft | 286 kts | 173° |
| 2026-05-05 20:11 | 53.70811 | -2.35902 | 7195 ft | 274 kts | 173° |
| 2026-05-05 20:12 | 53.68969 | -2.35440 | 6915 ft | 263 kts | 173° |
| 2026-05-05 20:12 | 53.67211 | -2.35002 | 6956 ft | 253 kts | 173° |
| 2026-05-05 20:12 | 53.65449 | -2.34549 | 6947 ft | 258 kts | 172° |
| 2026-05-05 20:12 | 53.63674 | -2.34060 | 6854 ft | 257 kts | 171° |
| 2026-05-05 20:13 | 53.61920 | -2.33562 | 6746 ft | 255 kts | 171° |
| 2026-05-05 20:13 | 53.60165 | -2.33062 | 6643 ft | 255 kts | 172° |
| 2026-05-05 20:13 | 53.58417 | -2.32567 | 6535 ft | 254 kts | 171° |
| 2026-05-05 20:13 | 53.56679 | -2.32077 | 6428 ft | 253 kts | 171° |
| 2026-05-05 20:14 | 53.54949 | -2.31590 | 6310 ft | 252 kts | 171° |
| 2026-05-05 20:14 | 53.53221 | -2.31104 | 6210 ft | 251 kts | 171° |
| 2026-05-05 20:14 | 53.51508 | -2.30627 | 6104 ft | 251 kts | 172° |
| 2026-05-05 20:14 | 53.49784 | -2.30146 | 5998 ft | 251 kts | 171° |
| 2026-05-05 20:15 | 53.48063 | -2.29667 | 5899 ft | 251 kts | 171° |
| 2026-05-05 20:15 | 53.46342 | -2.29186 | 5792 ft | 250 kts | 171° |
| 2026-05-05 20:15 | 53.44627 | -2.28708 | 5686 ft | 250 kts | 171° |
| 2026-05-05 20:15 | 53.42912 | -2.28231 | 5583 ft | 250 kts | 171° |
| 2026-05-05 20:16 | 53.41195 | -2.27754 | 5478 ft | 250 kts | 171° |
| 2026-05-05 20:16 | 53.39482 | -2.27280 | 5342 ft | 249 kts | 171° |
| 2026-05-05 20:16 | 53.37798 | -2.26846 | 5224 ft | 242 kts | 176° |
| 2026-05-05 20:16 | 53.36148 | -2.27178 | 5122 ft | 240 kts | 200° |
| 2026-05-05 20:17 | 53.34711 | -2.28534 | 5027 ft | 238 kts | 223° |
| 2026-05-05 20:17 | 53.33639 | -2.30596 | 4920 ft | 238 kts | 232° |
| 2026-05-05 20:17 | 53.32615 | -2.32781 | 4809 ft | 239 kts | 232° |
| 2026-05-05 20:17 | 53.31586 | -2.34962 | 4713 ft | 239 kts | 232° |
| 2026-05-05 20:18 | 53.30552 | -2.37143 | 4615 ft | 240 kts | 232° |
| 2026-05-05 20:18 | 53.29515 | -2.39325 | 4532 ft | 235 kts | 231° |
| 2026-05-05 20:18 | 53.28528 | -2.41400 | 4413 ft | 223 kts | 231° |
| 2026-05-05 20:18 | 53.27573 | -2.43408 | 4318 ft | 220 kts | 231° |
| 2026-05-05 20:19 | 53.26621 | -2.45411 | 4222 ft | 220 kts | 231° |
| 2026-05-05 20:19 | 53.25667 | -2.47420 | 4126 ft | 222 kts | 231° |
| 2026-05-05 20:19 | 53.24608 | -2.49265 | 4023 ft | 221 kts | 215° |
| 2026-05-05 20:19 | 53.23248 | -2.50417 | 4004 ft | 219 kts | 194° |
| 2026-05-05 20:20 | 53.21757 | -2.50826 | 4009 ft | 218 kts | 184° |
| 2026-05-05 20:20 | 53.20257 | -2.51096 | 4006 ft | 217 kts | 184° |
| 2026-05-05 20:20 | 53.18755 | -2.51373 | 4000 ft | 217 kts | 184° |
| 2026-05-05 20:20 | 53.17251 | -2.51654 | 4004 ft | 218 kts | 186° |
| 2026-05-05 20:21 | 53.15834 | -2.52488 | 3997 ft | 219 kts | 213° |
| 2026-05-05 20:21 | 53.14822 | -2.54376 | 3990 ft | 222 kts | 244° |
| 2026-05-05 20:21 | 53.14506 | -2.56867 | 4000 ft | 220 kts | 275° |
| 2026-05-05 20:21 | 53.14962 | -2.59241 | 3992 ft | 215 kts | 305° |
| 2026-05-05 20:22 | 53.16031 | -2.60912 | 3997 ft | 211 kts | 335° |
| 2026-05-05 20:22 | 53.17420 | -2.61515 | 3998 ft | 207 kts | 2° |
| 2026-05-05 20:22 | 53.18802 | -2.60952 | 4000 ft | 205 kts | 30° |
| 2026-05-05 20:22 | 53.19859 | -2.59388 | 4018 ft | 204 kts | 51° |
| 2026-05-05 20:23 | 53.20754 | -2.57549 | 3996 ft | 205 kts | 51° |
| 2026-05-05 20:23 | 53.21657 | -2.55697 | 4004 ft | 206 kts | 51° |
| 2026-05-05 20:23 | 53.22559 | -2.53851 | 3997 ft | 205 kts | 52° |
| 2026-05-05 20:23 | 53.23459 | -2.52010 | 3815 ft | 204 kts | 51° |
| 2026-05-05 20:24 | 53.24351 | -2.50184 | 3577 ft | 200 kts | 52° |
| 2026-05-05 20:24 | 53.25206 | -2.48432 | 3323 ft | 189 kts | 52° |
| 2026-05-05 20:24 | 53.26014 | -2.46775 | 3056 ft | 179 kts | 52° |
| 2026-05-05 20:24 | 53.26768 | -2.45222 | 2797 ft | 166 kts | 53° |
| 2026-05-05 20:25 | 53.27469 | -2.43783 | 2570 ft | 154 kts | 52° |
| 2026-05-05 20:25 | 53.28122 | -2.42451 | 2442 ft | 146 kts | 52° |
| 2026-05-05 20:25 | 53.28745 | -2.41170 | 2230 ft | 140 kts | 52° |
| 2026-05-05 20:25 | 53.29346 | -2.39932 | 2030 ft | 138 kts | 52° |
| 2026-05-05 20:26 | 53.29948 | -2.38693 | 1853 ft | 137 kts | 52° |
| 2026-05-05 20:26 | 53.30550 | -2.37452 | 1649 ft | 137 kts | 52° |
| 2026-05-05 20:26 | 53.31152 | -2.36210 | 1428 ft | 138 kts | 51° |
| 2026-05-05 20:26 | 53.31755 | -2.34971 | 1241 ft | 137 kts | 52° |
| 2026-05-05 20:27 | 53.32357 | -2.33728 | 1048 ft | 137 kts | 52° |
| 2026-05-05 20:27 | 53.32963 | -2.32481 | 797 ft | 138 kts | 51° |
| 2026-05-05 20:27 | 53.33564 | -2.31239 | 639 ft | 137 kts | 51° |
| 2026-05-05 20:27 | 53.34167 | -2.29990 | 430 ft | 138 kts | 51° |
| 2026-05-05 20:28 | 53.34767 | -2.28751 | 261 ft | 136 kts | 51° |
| 2026-05-05 20:28 | 53.35304 | -2.27643 | 289 ft | 126 kts | 51° |
| 2026-05-05 20:28 | 53.35871 | -2.26476 | 1067 ft | 129 kts | 50° |
| 2026-05-05 20:28 | 53.36450 | -2.25285 | 1861 ft | 138 kts | 52° |
| 2026-05-05 20:29 | 53.37105 | -2.23975 | 2074 ft | 158 kts | 51° |
| 2026-05-05 20:29 | 53.37861 | -2.22469 | 2235 ft | 181 kts | 52° |
| 2026-05-05 20:29 | 53.38721 | -2.20758 | 2436 ft | 202 kts | 51° |
| 2026-05-05 20:29 | 53.39655 | -2.18897 | 2963 ft | 212 kts | 51° |
| 2026-05-05 20:30 | 53.40615 | -2.16984 | 3398 ft | 219 kts | 51° |
| 2026-05-05 20:30 | 53.41603 | -2.15003 | 3503 ft | 221 kts | 52° |
| 2026-05-05 20:30 | 53.42423 | -2.12852 | 3473 ft | 219 kts | 72° |
| 2026-05-05 20:30 | 53.42563 | -2.10337 | 3476 ft | 218 kts | 98° |
| 2026-05-05 20:31 | 53.41984 | -2.07974 | 3509 ft | 226 kts | 124° |
| 2026-05-05 20:31 | 53.40795 | -2.06231 | 3501 ft | 232 kts | 149° |
| 2026-05-05 20:31 | 53.39262 | -2.05309 | 3521 ft | 238 kts | 158° |
| 2026-05-05 20:31 | 53.37729 | -2.04260 | 3570 ft | 239 kts | 151° |
| 2026-05-05 20:32 | 53.36229 | -2.03117 | 3607 ft | 241 kts | 158° |
| 2026-05-05 20:32 | 53.34536 | -2.02976 | 3593 ft | 248 kts | 196° |
| 2026-05-05 20:32 | 53.33120 | -2.04581 | 3482 ft | 248 kts | 236° |
| 2026-05-05 20:32 | 53.32602 | -2.07166 | 3411 ft | 228 kts | 272° |
| 2026-05-05 20:33 | 53.32663 | -2.09794 | 3472 ft | 223 kts | 274° |
| 2026-05-05 20:33 | 53.32750 | -2.12343 | 3525 ft | 223 kts | 274° |
| 2026-05-05 20:33 | 53.32751 | -2.14945 | 3519 ft | 224 kts | 269° |
| 2026-05-05 20:33 | 53.32728 | -2.17542 | 3436 ft | 220 kts | 270° |
| 2026-05-05 20:34 | 53.32740 | -2.20069 | 3298 ft | 221 kts | 272° |
| 2026-05-05 20:34 | 53.32728 | -2.22648 | 2982 ft | 222 kts | 263° |
| 2026-05-05 20:34 | 53.32237 | -2.24944 | 2699 ft | 221 kts | 238° |
| 2026-05-05 20:34 | 53.31393 | -2.27089 | 2419 ft | 221 kts | 236° |
| 2026-05-05 20:35 | 53.30541 | -2.29234 | 2264 ft | 223 kts | 235° |
| 2026-05-05 20:35 | 53.29682 | -2.31389 | 2146 ft | 223 kts | 235° |
| 2026-05-05 20:35 | 53.28766 | -2.33478 | 1932 ft | 223 kts | 230° |
| 2026-05-05 20:35 | 53.27657 | -2.35287 | 1778 ft | 223 kts | 218° |
| 2026-05-05 20:36 | 53.26511 | -2.37036 | 1591 ft | 224 kts | 227° |
| 2026-05-05 20:36 | 53.25724 | -2.39079 | 1510 ft | 207 kts | 250° |
| 2026-05-05 20:36 | 53.25560 | -2.41220 | 1592 ft | 182 kts | 283° |
| 2026-05-05 20:36 | 53.26076 | -2.42951 | 1573 ft | 157 kts | 326° |
| 2026-05-05 20:37 | 53.26991 | -2.43449 | 1557 ft | 134 kts | 15° |
| 2026-05-05 20:37 | 53.27531 | -2.43045 | 1557 ft | 127 kts | 38° |
| 2026-05-05 20:37 | 53.28432 | -2.41771 | 1499 ft | 127 kts | 48° |
| 2026-05-05 20:37 | 53.29004 | -2.40669 | 1490 ft | 126 kts | 51° |
| 2026-05-05 20:38 | 53.29563 | -2.39535 | 1478 ft | 127 kts | 51° |
| 2026-05-05 20:38 | 53.30109 | -2.38392 | 1452 ft | 126 kts | 52° |
| 2026-05-05 20:38 | 53.30666 | -2.37248 | 1386 ft | 127 kts | 51° |
| 2026-05-05 20:38 | 53.31219 | -2.36077 | 1282 ft | 129 kts | 52° |
| 2026-05-05 20:39 | 53.31789 | -2.34910 | 1162 ft | 130 kts | 51° |
| 2026-05-05 20:39 | 53.32372 | -2.33745 | 1053 ft | 129 kts | 51° |
| 2026-05-05 20:39 | 53.32948 | -2.32553 | 837 ft | 132 kts | 52° |
| 2026-05-05 20:39 | 53.33522 | -2.31356 | 638 ft | 132 kts | 51° |
| 2026-05-05 20:40 | 53.34085 | -2.30173 | 471 ft | 129 kts | 51° |
| 2026-05-05 20:40 | 53.34648 | -2.28997 | 299 ft | 131 kts | 51° |
| 2026-05-05 20:40 | 53.35192 | -2.27880 | 246 ft | 103 kts | 51° |
| 2026-05-05 20:40 | 53.35457 | -2.27336 | 261 ft | 29 kts | 51° |
| 2026-05-05 20:41 | 53.35565 | -2.27107 | 262 ft | 16 kts | 52° |
| 2026-05-05 20:41 | 53.35616 | -2.27080 | 265 ft | 7 kts | 339° |
| 2026-05-05 20:41 | 53.35649 | -2.27120 | 264 ft | 6 kts | 320° |
| 2026-05-05 20:41 | 53.35695 | -2.27184 | 258 ft | 0 kts | 320° |
| 2026-05-05 20:42 | 53.35710 | -2.27204 | 256 ft | 10 kts | 321° |
| 2026-05-05 20:42 | 53.35784 | -2.27312 | 247 ft | 8 kts | 301° |
| 2026-05-05 20:42 | 53.35766 | -2.27367 | 248 ft | 5 kts | 230° |
| 2026-05-05 20:42 | 53.35713 | -2.27472 | 248 ft | 18 kts | 230° |
| 2026-05-05 20:43 | 53.35695 | -2.27610 | 247 ft | 11 kts | 310° |
| 2026-05-05 20:43 | 53.35764 | -2.27662 | 247 ft | 11 kts | 337° |
| 2026-05-05 20:43 | 53.35818 | -2.27743 | 247 ft | 10 kts | 311° |
| 2026-05-05 20:43 | 53.35861 | -2.27823 | 247 ft | 9 kts | 316° |
| 2026-05-05 20:44 | 53.35927 | -2.27846 | 247 ft | 12 kts | 360° |
| 2026-05-05 20:44 | 53.35999 | -2.27912 | 247 ft | 12 kts | 315° |
| 2026-05-05 20:44 | 53.36057 | -2.28011 | 247 ft | 11 kts | 314° |
| 2026-05-05 20:44 | 53.36112 | -2.28104 | 247 ft | 11 kts | 315° |
| 2026-05-05 20:45 | 53.36215 | -2.28274 | 247 ft | 10 kts | 315° |
| 2026-05-05 20:45 | 53.36260 | -2.28350 | 247 ft | 10 kts | 315° |
| 2026-05-05 20:45 | 53.36328 | -2.28462 | 247 ft | 14 kts | 319° |
| 2026-05-05 20:46 | 53.36418 | -2.28487 | 247 ft | 13 kts | 331° |
| 2026-05-05 20:46 | 53.36480 | -2.28590 | 247 ft | 12 kts | 315° |
| 2026-05-05 20:46 | 53.36537 | -2.28687 | 247 ft | 11 kts | 315° |
| 2026-05-05 20:46 | 53.36584 | -2.28790 | 247 ft | 12 kts | 296° |
| 2026-05-05 20:47 | 53.36632 | -2.28885 | 247 ft | 10 kts | 339° |
| 2026-05-05 20:47 | 53.36690 | -2.28946 | 247 ft | 11 kts | 314° |
| 2026-05-05 20:47 | 53.36726 | -2.29008 | 247 ft | 11 kts | 314° |
| 2026-05-05 20:47 | 53.36789 | -2.29027 | 247 ft | 10 kts | 14° |
| 2026-05-05 20:48 | 53.36853 | -2.28999 | 247 ft | 9 kts | 14° |
| 2026-05-05 20:48 | 53.36912 | -2.28954 | 247 ft | 9 kts | 41° |
| 2026-05-05 20:48 | 53.36948 | -2.28904 | 247 ft | 5 kts | 24° |
| 2026-05-05 20:48 | 53.36971 | -2.28922 | 247 ft | 3 kts | 321° |
| 2026-05-05 20:49 | 53.36985 | -2.28944 | 247 ft | 2 kts | 314° |
| 2026-05-05 20:49 | 53.36988 | -2.28948 | 247 ft | 0 kts | 314° |